Flight Number: EUR1459 Duration: 2:15
Departure: Krakow Balice (EPKK) at 21:30 Distance: 761 Nm
Arrival: Gatwick Airport (EGKK) at 23:45 Equipment: B737

Weather Information
Krakow, Poland (EPKK) 50-05N 019-48E 237M Oct 19, 2018 - 01:30 PM EDT / 2018.10.19 1730 UTC
Wind: from the W (260 degrees) at 6 MPH (5 KT):0
Visibility: 1 mile(s):0
Sky conditions: mostly cloudy Weather: mist Temperature: 51 F (11 C) Dew Point: 48 F (9 C) Relative Humidity: 87% Pressure (altimeter): 30.21 in. Hg (1023 hPa)
ob: EPKK 191730Z 26005KT 3000 BR BKN008 11/09 Q1023 cycle: 17
Sunrise: 05:13 Sunset: 15:37 (UTC)

London / Gatwick Airport, United Kingdom (EGKK) 51-09N 000-11W 0M Oct 19, 2018 - 01:50 PM EDT / 2018.10.19 1750 UTC
Wind: from the WNW (300 degrees) at 5 MPH (4 KT) (direction variable):0
Visibility: greater than 7 mile(s):0 Temperature: 55 F (13 C) Dew Point: 44 F (7 C) Relative Humidity: 66% Pressure (altimeter): 30.33 in. Hg (1027 hPa)
ob: EGKK 191750Z 30004KT 190V340 CAVOK 13/07 Q1027 cycle: 18
Sunrise: 06:35 Sunset: 16:55 (UTC)

TAF:2018/10/19 18:12 TAF EGKK 191707Z 1918/2024 34004KT CAVOK BECMG 1922/2001 6000 PROB30 2001/2009 0500 FG VV/// BECMG 2009/2012 CAVOK BECMG 2021/2024 5000 HZ

Previous Pireps for this route
Date Aircraft Flight time Fuel used Landing rate On time
2016-03-07B73702.1320321-166Yes
(pireps marked green are flown by you)

Route map